Time;durP1;ratioP1;P1;durP2;ratioP2;P2;SDS_P1;SDS_P2;PMS_P1;PMS_P2;Temp;Humidity;BMP_temperature;BMP_pressure;BME280_temperature;BME280_humidity;BME280_pressure;Samples;Min_cycle;Max_cycle;Signal;HPM_P1;HPM_P2
2022/02/07 00:02:01;;;;;;;27.42;10.32;;;;;;;-0.38;67.93;98347.67;1738358;78;21023;31
2022/02/07 00:04:31;;;;;;;26.12;10.53;;;;;;;-0.18;68.08;98365.67;1717645;80;21155;-79
2022/02/07 00:13:20;;;;;;;23.57;10.10;;;;;;;-0.30;68.66;98346.89;1701444;80;21114;31
2022/02/07 00:15:47;;;;;;;24.45;11.08;;;;;;;-0.29;68.85;98343.48;1735440;80;21076;-82
2022/02/07 00:18:16;;;;;;;25.75;10.38;;;;;;;-0.32;70.06;98335.81;1731969;80;21158;-81
2022/02/07 00:23:46;;;;;;;24.27;9.60;;;;;;;-0.32;69.67;98326.00;1727156;80;21118;-81
2022/02/07 00:32:34;;;;;;;27.02;9.85;;;;;;;-0.26;69.54;98329.46;1688437;80;21046;-80
2022/02/07 00:38:09;;;;;;;24.32;8.93;;;;;;;-0.26;68.85;98315.81;1766377;77;21145;-83
2022/02/07 00:43:39;;;;;;;46.23;10.10;;;;;;;-0.26;68.93;98303.92;1734994;79;21059;31
2022/02/07 00:49:06;;;;;;;22.05;9.53;;;;;;;-0.29;68.85;98289.84;1723245;79;21098;-84
2022/02/07 00:51:33;;;;;;;28.20;10.43;;;;;;;-0.29;68.76;98298.78;1724888;83;21043;-82
2022/02/07 00:54:00;;;;;;;31.15;11.05;;;;;;;-0.29;68.41;98288.56;1725071;80;21016;-82
2022/02/07 00:56:28;;;;;;;29.87;11.40;;;;;;;-0.29;69.51;98294.10;1709612;79;21063;-83
2022/02/07 00:59:04;;;;;;;29.70;10.03;;;;;;;-0.43;70.05;98259.11;1719895;79;21345;31
2022/02/07 01:01:38;;;;;;;25.75;10.18;;;;;;;-0.27;69.80;98298.80;1698760;79;21190;31
2022/02/07 01:04:22;;;;;;;31.60;12.33;;;;;;;-0.28;70.74;98286.45;1719656;79;21012;31
2022/02/07 01:06:51;;;;;;;26.73;9.68;;;;;;;-0.29;69.36;98289.84;1742956;78;21293;-83
2022/02/07 01:15:45;;;;;;;32.15;11.60;;;;;;;-0.35;68.75;98277.04;1716938;79;21114;-84
2022/02/07 01:23:41;;;;;;;29.82;13.20;;;;;;;-0.42;69.54;98263.39;1699342;80;21121;31
2022/02/07 01:57:46;;;;;;;24.63;10.90;;;;;;;-0.73;70.49;98175.56;1716360;79;21087;-80
2022/02/07 02:00:35;;;;;;;35.85;13.20;;;;;;;-0.68;70.08;98164.09;1682118;81;21144;-81
2022/02/07 02:03:03;;;;;;;45.78;13.88;;;;;;;-0.66;70.96;98147.95;1684732;81;21142;-85
2022/02/07 02:05:39;;;;;;;34.03;11.03;;;;;;;-0.66;70.21;98130.09;1700400;80;23317;-77
2022/02/07 02:47:53;;;;;;;24.53;9.47;;;;;;;0.08;68.16;98030.61;1663756;81;21129;-83
2022/02/07 02:56:02;;;;;;;23.27;9.53;;;;;;;0.31;67.53;98033.57;1668708;81;21084;-80
2022/02/07 02:58:33;;;;;;;28.17;11.03;;;;;;;0.33;67.34;98029.30;1673806;81;21144;-74
2022/02/07 03:04:18;;;;;;;27.32;10.10;;;;;;;0.37;67.28;98014.38;1686631;81;21136;-82
2022/02/07 03:06:48;;;;;;;30.48;11.95;;;;;;;0.23;67.18;97991.39;1693232;81;21162;-79
2022/02/07 03:12:20;;;;;;;21.90;10.48;;;;;;;0.31;67.78;98000.33;1688256;80;21230;-75
2022/02/07 03:15:03;;;;;;;26.55;10.48;;;;;;;0.35;67.68;97991.80;1673602;78;22562;31
2022/02/07 03:17:22;;;;;;;27.67;10.38;;;;;;;0.38;67.60;97990.53;1661293;81;21188;-79
2022/02/07 03:19:55;;;;;;;20.40;9.78;;;;;;;0.43;67.78;97996.91;1719128;78;21166;31
2022/02/07 03:22:22;;;;;;;22.48;9.60;;;;;;;0.47;67.71;97992.20;1697303;84;21113;-81
2022/02/07 03:27:44;;;;;;;20.45;9.10;;;;;;;0.57;67.65;97984.48;1726061;81;21099;-82
2022/02/07 03:30:13;;;;;;;24.40;10.20;;;;;;;0.63;67.63;97988.74;1741935;78;21319;-83
2022/02/07 03:38:49;;;;;;;26.30;10.93;;;;;;;0.75;67.55;97986.58;1680732;81;21288;31
2022/02/07 03:41:24;;;;;;;30.60;12.33;;;;;;;0.78;67.40;97990.41;1700265;78;21123;31
2022/02/07 03:43:55;;;;;;;23.55;11.22;;;;;;;0.76;67.32;97987.85;1656876;83;21162;31
2022/02/07 03:46:23;;;;;;;31.33;12.88;;;;;;;0.74;67.65;97986.16;1676474;80;21039;-83
2022/02/07 03:54:57;;;;;;;38.02;15.23;;;;;;;0.72;67.31;97987.45;1688418;81;22447;31
2022/02/07 03:57:25;;;;;;;31.40;12.33;;;;;;;0.72;67.68;97981.48;1682031;80;21067;-80
2022/02/07 04:02:49;;;;;;;26.85;11.70;;;;;;;0.73;67.56;97999.36;1729738;83;21031;-81
2022/02/07 04:07:46;;;;;;;30.20;11.55;;;;;;;0.72;67.86;98001.52;1743174;82;21316;-85
2022/02/07 04:13:13;;;;;;;32.40;13.40;;;;;;;0.73;68.51;97998.52;1714325;80;21044;31
2022/02/07 04:21:31;;;;;;;41.28;16.07;;;;;;;0.79;68.01;97996.78;1713689;80;21075;-80
2022/02/07 04:26:54;;;;;;;33.98;15.18;;;;;;;0.86;68.57;97989.95;1697313;82;21079;-82
2022/02/07 04:29:21;;;;;;;53.13;20.48;;;;;;;0.89;68.93;98000.16;1681645;81;21203;-82
2022/02/07 04:40:34;;;;;;;26.05;11.35;;;;;;;0.89;69.25;97943.86;1698161;79;21032;-85
2022/02/07 04:43:02;;;;;;;19.12;9.33;;;;;;;0.88;69.57;97939.62;1682685;81;21070;-82
2022/02/07 04:51:43;;;;;;;25.27;10.80;;;;;;;0.89;69.80;97913.16;1696293;79;21198;31
2022/02/07 05:03:05;;;;;;;21.35;10.03;;;;;;;1.14;70.43;97897.67;1649492;84;21155;-80
2022/02/07 05:04:50;;;;;;;23.38;10.68;;;;;;;1.32;72.06;97914.17;1651677;80;21106;-86
2022/02/07 05:15:52;;;;;;;11.48;4.83;;;;;;;2.31;77.12;97881.25;1639015;86;21043;-84
2022/02/07 05:18:21;;;;;;;6.87;3.47;;;;;;;2.68;78.82;97873.09;1638500;88;21088;-84
2022/02/07 05:21:06;;;;;;;6.53;3.08;;;;;;;3.14;81.28;97881.02;1636873;88;21138;-90
2022/02/07 05:23:41;;;;;;;5.50;3.10;;;;;;;3.62;83.11;97876.42;1675707;83;21051;-89
2022/02/07 05:26:28;;;;;;;6.78;3.02;;;;;;;3.94;80.92;97854.44;1621163;85;21151;-89
2022/02/07 05:29:12;;;;;;;5.42;2.60;;;;;;;4.30;80.57;97863.17;1674149;85;21163;-89
2022/02/07 05:31:50;;;;;;;6.87;2.98;;;;;;;4.63;80.83;97865.92;1663116;82;21640;-90
2022/02/07 05:34:27;;;;;;;6.42;3.20;;;;;;;4.86;79.74;97855.14;1692320;81;21052;-84
2022/02/07 05:36:57;;;;;;;5.67;3.08;;;;;;;4.97;77.81;97854.48;1723935;80;20999;-85
2022/02/07 05:39:45;;;;;;;8.23;3.50;;;;;;;5.03;77.71;97850.89;1667855;86;21552;-92
2022/02/07 05:42:13;;;;;;;14.53;4.47;;;;;;;5.02;76.13;97836.34;1717581;82;21043;-91
2022/02/07 05:44:48;;;;;;;13.48;5.50;;;;;;;4.93;75.50;97838.69;1685952;80;21164;-90
2022/02/07 05:47:34;;;;;;;10.55;5.05;;;;;;;4.84;75.53;97831.16;1658513;83;21096;-87
2022/02/07 05:50:04;;;;;;;10.78;5.15;;;;;;;4.73;75.44;97830.54;1693199;80;21052;-90
2022/02/07 05:52:51;;;;;;;12.60;6.00;;;;;;;4.64;74.91;97840.61;1714223;81;21089;-92
2022/02/07 05:55:22;;;;;;;15.50;8.93;;;;;;;4.54;75.86;97836.53;1723935;78;21168;-92
2022/02/07 05:57:57;;;;;;;12.53;6.55;;;;;;;4.47;76.34;97838.38;1724997;81;21085;-91
2022/02/07 06:00:42;;;;;;;12.88;6.85;;;;;;;4.39;75.92;97845.41;1723585;78;21021;-93
2022/02/07 06:03:12;;;;;;;12.00;5.95;;;;;;;4.36;75.29;97849.34;1713036;81;21525;-91
2022/02/07 06:05:41;;;;;;;9.25;5.15;;;;;;;4.32;75.23;97846.42;1737853;80;21036;-87
2022/02/07 06:08:09;;;;;;;12.63;5.10;;;;;;;4.30;77.00;97833.59;1748725;82;21000;-85
2022/02/07 06:10:36;;;;;;;11.20;5.12;;;;;;;4.30;75.73;97831.46;1754539;81;21023;-86
2022/02/07 06:13:06;;;;;;;10.03;4.42;;;;;;;4.32;76.77;97841.28;1753490;81;20969;31
2022/02/07 06:15:33;;;;;;;9.55;3.92;;;;;;;4.37;76.03;97842.02;1717371;83;21022;-89
2022/02/07 06:18:01;;;;;;;10.48;3.98;;;;;;;4.46;76.66;97828.13;1702048;83;21007;-92
2022/02/07 06:20:30;;;;;;;6.42;2.90;;;;;;;4.60;79.04;97811.11;1730512;81;21134;-91
2022/02/07 06:23:00;;;;;;;6.95;3.10;;;;;;;4.76;80.03;97813.75;1734981;80;21015;-85
2022/02/07 06:25:27;;;;;;;7.20;3.65;;;;;;;4.90;78.74;97803.14;1732971;80;21138;-85
2022/02/07 06:27:55;;;;;;;6.80;3.67;;;;;;;4.99;78.81;97801.62;1708116;82;21015;-85
2022/02/07 06:30:24;;;;;;;10.72;5.08;;;;;;;5.06;78.67;97796.73;1721686;81;21164;-91
2022/02/07 06:32:50;;;;;;;10.05;4.10;;;;;;;4.97;77.57;97772.06;1725164;83;21495;-90
2022/02/07 06:35:19;;;;;;;9.73;4.40;;;;;;;5.10;78.05;97796.23;1707700;81;21042;-89
2022/02/07 06:37:46;;;;;;;9.83;4.62;;;;;;;5.12;77.51;97794.47;1713700;83;21344;-88
2022/02/07 06:40:13;;;;;;;8.25;4.00;;;;;;;5.09;77.29;97791.53;1709565;82;21127;-88
2022/02/07 06:42:40;;;;;;;8.78;4.35;;;;;;;5.08;76.71;97797.55;1725469;80;21152;-89
2022/02/07 06:45:08;;;;;;;9.50;4.28;;;;;;;5.06;77.47;97789.02;1712069;84;21073;-90
2022/02/07 06:47:38;;;;;;;7.90;4.10;;;;;;;5.05;77.02;97782.60;1757689;79;21202;-91
2022/02/07 06:50:05;;;;;;;8.45;4.60;;;;;;;5.03;77.25;97789.52;1778275;79;21057;-89
2022/02/07 06:52:32;;;;;;;10.30;4.50;;;;;;;5.01;78.23;97773.26;1777956;80;21058;-90
2022/02/07 06:54:59;;;;;;;5.55;3.58;;;;;;;5.05;77.83;97767.98;1766176;80;21014;-89
2022/02/07 06:57:26;;;;;;;7.47;3.80;;;;;;;5.11;77.10;97771.73;1766528;80;21583;-89
2022/02/07 06:59:54;;;;;;;10.00;3.87;;;;;;;5.20;76.61;97760.34;1790237;80;20999;-90
2022/02/07 07:02:26;;;;;;;6.47;3.25;;;;;;;5.27;77.41;97751.58;1666114;80;21091;-89
2022/02/07 07:04:56;;;;;;;7.83;3.45;;;;;;;5.35;77.05;97756.52;1725848;82;21116;-83
2022/02/07 07:07:22;;;;;;;6.25;3.10;;;;;;;5.47;76.84;97750.20;1685808;81;21552;-91
2022/02/07 07:09:50;;;;;;;9.25;3.47;;;;;;;5.58;77.13;97753.35;1703153;82;21097;-89
2022/02/07 07:12:18;;;;;;;21.93;8.63;;;;;;;5.85;76.18;97738.88;1781151;79;21125;-92
2022/02/07 07:14:50;;;;;;;117.75;34.92;;;;;;;6.07;75.44;97727.95;1762353;79;21206;-86
2022/02/07 07:17:16;;;;;;;57.70;21.15;;;;;;;6.23;74.99;97736.97;1695406;84;21004;-83
2022/02/07 07:19:45;;;;;;;27.07;14.60;;;;;;;6.38;74.51;97734.36;1692358;83;21636;-83
2022/02/07 07:22:13;;;;;;;7.62;4.45;;;;;;;6.50;74.01;97731.41;1688459;83;21012;-83
2022/02/07 07:24:42;;;;;;;5.42;2.30;;;;;;;6.62;73.47;97737.09;1688409;83;21083;-83
2022/02/07 07:27:12;;;;;;;3.90;2.33;;;;;;;6.72;72.92;97739.78;1683313;83;21000;-84
2022/02/07 07:29:42;;;;;;;4.92;2.35;;;;;;;6.85;72.49;97725.59;1669929;84;21030;-85
2022/02/07 07:32:08;;;;;;;9.23;4.83;;;;;;;6.91;72.11;97730.56;1682359;83;21023;-85
2022/02/07 07:34:37;;;;;;;3.60;2.12;;;;;;;7.03;71.53;97737.08;1685588;83;21080;-83
2022/02/07 07:37:05;;;;;;;5.65;2.72;;;;;;;7.10;71.44;97724.37;1679700;83;21047;-81
2022/02/07 07:39:32;;;;;;;3.25;2.20;;;;;;;7.15;70.99;97724.20;1628354;86;21529;-82
2022/02/07 07:42:01;;;;;;;3.37;2.10;;;;;;;7.24;70.88;97718.73;1649510;86;21087;-84
2022/02/07 07:44:33;;;;;;;3.12;1.82;;;;;;;7.31;71.33;97714.19;1646545;84;21080;-85
2022/02/07 07:47:16;;;;;;;3.80;2.00;;;;;;;7.33;70.70;97714.98;1633690;84;21141;-84
2022/02/07 07:50:11;;;;;;;4.83;2.35;;;;;;;7.42;69.73;97730.20;1724153;80;21072;-84
2022/02/07 07:52:56;;;;;;;8.33;2.67;;;;;;;7.46;69.94;97732.20;1696676;79;21794;-93
2022/02/07 08:03:27;;;;;;;4.22;2.05;;;;;;;7.72;68.70;97755.44;1690975;84;21007;-83
2022/02/07 08:06:07;;;;;;;4.42;2.30;;;;;;;7.82;68.69;97753.37;1714897;82;21048;-85
2022/02/07 08:08:30;;;;;;;5.28;2.12;;;;;;;7.87;68.90;97746.73;1718515;82;21090;-84
2022/02/07 08:13:21;;;;;;;3.55;1.67;;;;;;;7.92;69.83;97746.14;1683135;83;21031;-82
2022/02/07 08:15:49;;;;;;;3.05;1.67;;;;;;;7.96;70.13;97737.36;1710861;83;21038;-83
2022/02/07 08:18:15;;;;;;;3.70;1.90;;;;;;;8.01;70.43;97739.31;1713967;82;21015;-81
2022/02/07 08:20:42;;;;;;;3.00;1.82;;;;;;;8.08;70.76;97734.32;1713229;83;21466;-82
2022/02/07 08:23:10;;;;;;;2.85;1.80;;;;;;;8.00;69.58;97723.83;1715087;82;21055;-83
2022/02/07 08:25:37;;;;;;;2.37;1.70;;;;;;;8.07;69.04;97733.08;1720515;81;21026;-83
2022/02/07 08:28:06;;;;;;;3.12;1.92;;;;;;;8.08;69.24;97734.32;1711082;83;20995;-82
2022/02/07 08:30:33;;;;;;;3.00;1.65;;;;;;;8.05;68.37;97729.70;1726370;83;21009;-82
2022/02/07 08:33:02;;;;;;;3.17;1.77;;;;;;;8.07;68.37;97728.73;1716912;81;21058;-83
2022/02/07 08:35:30;;;;;;;3.10;1.77;;;;;;;8.14;68.35;97721.15;1713459;82;21530;-83
2022/02/07 08:37:57;;;;;;;3.67;1.70;;;;;;;8.13;68.16;97735.44;1716381;82;21071;-84
2022/02/07 08:40:24;;;;;;;2.67;1.60;;;;;;;8.14;68.25;97723.73;1721392;82;21084;-83
2022/02/07 08:42:50;;;;;;;2.77;1.80;;;;;;;8.20;68.21;97717.92;1717405;82;21078;-84
2022/02/07 08:45:18;;;;;;;2.52;1.60;;;;;;;8.25;67.95;97704.36;1719870;82;21004;-83
2022/02/07 08:47:44;;;;;;;2.37;1.40;;;;;;;8.30;67.57;97703.75;1716353;82;21007;-82
2022/02/07 08:50:12;;;;;;;2.65;1.57;;;;;;;8.33;67.33;97702.32;1727652;82;21039;-81
2022/02/07 08:52:47;;;;;;;8.38;2.47;;;;;;;8.33;67.16;97696.69;1719213;82;21017;-83
2022/02/07 08:55:16;;;;;;;2.20;1.67;;;;;;;8.36;67.37;97693.98;1714072;82;21013;-82
2022/02/07 08:57:44;;;;;;;4.22;1.98;;;;;;;8.36;67.22;97700.46;1718102;82;21416;-83
2022/02/07 09:00:17;;;;;;;2.98;1.70;;;;;;;8.39;67.20;97694.31;1712150;82;21066;-87
2022/02/07 09:08:50;;;;;;;4.20;2.60;;;;;;;8.52;67.10;97694.73;1728974;82;21035;-84
2022/02/07 09:10:20;;;;;;;2.52;1.50;;;;;;;8.50;66.78;97683.59;1684028;82;21114;-83
2022/02/07 09:12:48;;;;;;;3.62;1.82;;;;;;;8.55;66.51;97693.30;1721125;82;21029;-84
2022/02/07 09:15:38;;;;;;;3.25;1.62;;;;;;;8.61;66.71;97688.33;1655956;82;21093;-85
2022/02/07 09:18:07;;;;;;;2.92;1.70;;;;;;;8.60;66.67;97691.84;1642657;86;21041;-84
2022/02/07 09:20:32;;;;;;;3.85;2.00;;;;;;;8.59;66.70;97692.73;1643978;86;21074;-82
2022/02/07 09:22:59;;;;;;;3.25;1.80;;;;;;;8.65;66.97;97692.48;1655261;85;21080;-83
2022/02/07 09:25:26;;;;;;;2.42;1.62;;;;;;;8.71;66.68;97690.94;1646336;85;21030;-82
2022/02/07 09:27:53;;;;;;;3.55;2.15;;;;;;;8.68;66.86;97690.63;1699269;83;20997;-82
2022/02/07 09:30:19;;;;;;;5.10;1.80;;;;;;;8.74;67.02;97686.95;1717852;83;21049;-82
2022/02/07 09:32:46;;;;;;;3.15;1.60;;;;;;;8.75;67.06;97689.48;1705022;83;21044;-81
2022/02/07 09:35:13;;;;;;;5.78;1.90;;;;;;;8.69;67.37;97683.69;1713595;83;21004;-81
2022/02/07 09:37:40;;;;;;;3.27;1.80;;;;;;;8.68;67.34;97689.33;1705454;83;21014;-84
2022/02/07 09:40:08;;;;;;;3.10;1.90;;;;;;;8.60;67.69;97682.77;1705671;82;21041;-83
2022/02/07 09:42:40;;;;;;;5.45;2.12;;;;;;;8.60;68.08;97678.43;1709490;80;21034;-84
2022/02/07 09:45:12;;;;;;;4.92;2.58;;;;;;;8.60;68.36;97673.25;1701340;81;21126;-88
2022/02/07 09:47:34;;;;;;;2.92;1.82;;;;;;;8.70;69.17;97668.08;1676279;79;21134;-91
2022/02/07 09:50:01;;;;;;;3.42;1.70;;;;;;;8.77;68.70;97664.78;1672155;84;21032;-90
2022/02/07 09:52:27;;;;;;;3.90;1.90;;;;;;;8.73;68.36;97658.91;1667048;86;21021;-91
2022/02/07 09:54:54;;;;;;;4.20;1.85;;;;;;;8.77;68.89;97645.34;1679184;84;21547;-88
2022/02/07 09:57:21;;;;;;;2.33;1.47;;;;;;;8.84;68.61;97640.78;1673441;86;21021;-87
2022/02/07 09:59:50;;;;;;;4.53;1.52;;;;;;;8.83;68.59;97636.02;1672991;83;21013;-83
2022/02/07 10:02:33;;;;;;;2.62;1.47;;;;;;;8.89;67.91;97628.02;1664396;82;20970;-83
2022/02/07 10:04:55;;;;;;;2.75;1.40;;;;;;;8.82;67.87;97623.98;1659273;81;21135;-93
2022/02/07 10:15:35;;;;;;;2.30;1.50;;;;;;;8.84;66.96;97609.67;1672586;83;21131;-91
2022/02/07 10:18:13;;;;;;;2.77;1.32;;;;;;;8.70;66.89;97606.36;1676519;80;21075;31
2022/02/07 10:40:28;;;;;;;2.77;1.60;;;;;;;8.69;67.31;97599.48;1723316;82;21147;-88
2022/02/07 10:46:04;;;;;;;2.75;1.70;;;;;;;8.70;67.58;97594.24;1726083;82;21055;-84
2022/02/07 10:48:41;;;;;;;2.37;1.50;;;;;;;8.71;67.75;97590.77;1695983;80;21134;-88
2022/02/07 10:51:16;;;;;;;1.82;1.30;;;;;;;8.72;67.70;97593.72;1689164;82;21126;-85
2022/02/07 10:53:50;;;;;;;1.98;1.17;;;;;;;8.73;67.87;97601.91;1692368;80;21143;-84
2022/02/07 10:56:22;;;;;;;2.65;1.50;;;;;;;8.65;68.03;97589.69;1716859;80;21130;-84
2022/02/07 10:58:54;;;;;;;4.05;1.67;;;;;;;8.64;68.13;97590.61;1660129;79;21127;-87
2022/02/07 11:01:41;;;;;;;2.30;1.10;;;;;;;8.47;69.00;97574.91;1679823;80;21152;-89
2022/02/07 11:04:04;;;;;;;4.92;2.02;;;;;;;8.52;69.41;97598.89;1692294;81;21064;-82
2022/02/07 11:06:33;;;;;;;3.60;1.72;;;;;;;8.45;69.50;97583.20;1677428;83;21144;-84
2022/02/07 11:09:11;;;;;;;2.70;1.45;;;;;;;8.46;70.71;97587.03;1682258;83;21005;-84
2022/02/07 11:11:49;;;;;;;2.50;1.50;;;;;;;8.40;71.19;97595.48;1687060;83;21029;-83
2022/02/07 11:22:37;;;;;;;4.97;1.52;;;;;;;8.16;71.36;97587.31;1755389;80;21047;-87
2022/02/07 11:25:11;;;;;;;4.67;2.15;;;;;;;8.06;72.40;97589.05;1686965;81;21714;-91
2022/02/07 11:27:38;;;;;;;2.75;1.40;;;;;;;8.09;71.67;97588.45;1650404;86;21013;-82
2022/02/07 11:30:10;;;;;;;1.95;1.25;;;;;;;8.12;71.69;97592.23;1661432;83;21134;-83
2022/02/07 11:32:48;;;;;;;5.97;3.00;;;;;;;8.06;72.08;97589.05;1650371;83;21228;-83
2022/02/07 11:35:30;;;;;;;2.70;1.10;;;;;;;8.15;72.13;97591.25;1660836;86;21034;-90
2022/02/07 11:38:05;;;;;;;1.98;1.10;;;;;;;8.24;71.66;97589.61;1666661;82;21103;-84
2022/02/07 11:40:37;;;;;;;2.02;1.15;;;;;;;8.35;71.27;97595.64;1664171;82;21299;-83
2022/02/07 11:43:18;;;;;;;2.20;1.27;;;;;;;8.36;70.26;97614.17;1649618;84;21099;-85
2022/02/07 11:46:06;;;;;;;2.35;1.30;;;;;;;8.50;70.63;97618.83;1714913;83;20992;-85
2022/02/07 11:48:43;;;;;;;2.67;1.40;;;;;;;8.63;70.94;97614.81;1698957;83;21044;-84
2022/02/07 11:51:18;;;;;;;1.40;1.20;;;;;;;8.76;69.90;97618.59;1720161;80;21671;-83
2022/02/07 11:53:51;;;;;;;2.62;1.17;;;;;;;8.85;69.75;97626.44;1737388;80;21020;-82
2022/02/07 11:56:41;;;;;;;2.70;1.52;;;;;;;8.86;69.63;97622.12;1692007;80;21061;-88
2022/02/07 11:59:18;;;;;;;2.15;1.20;;;;;;;8.89;69.41;97629.75;1709908;80;21024;-83
2022/02/07 12:02:04;;;;;;;2.37;1.30;;;;;;;8.76;69.37;97625.08;1708831;80;21041;-84
2022/02/07 12:04:42;;;;;;;2.15;1.20;;;;;;;8.66;68.83;97638.48;1708480;80;21070;-84
2022/02/07 12:07:18;;;;;;;2.98;1.45;;;;;;;8.50;69.72;97638.26;1712974;84;21048;-83
2022/02/07 12:10:13;;;;;;;1.75;1.17;;;;;;;8.50;69.83;97636.96;1706682;82;21270;-84
2022/02/07 12:12:44;;;;;;;2.25;1.32;;;;;;;8.43;69.01;97643.28;1710811;84;20976;-84
2022/02/07 12:15:37;;;;;;;2.72;1.17;;;;;;;8.42;68.61;97652.80;1713780;81;21124;-85
2022/02/07 12:18:18;;;;;;;1.87;1.30;;;;;;;8.29;68.63;97654.98;1715715;80;21080;-91
2022/02/07 12:20:48;;;;;;;2.52;1.50;;;;;;;8.20;69.34;97659.67;1744186;82;21074;-84
2022/02/07 12:23:24;;;;;;;3.35;1.75;;;;;;;8.08;69.94;97650.20;1747068;82;21019;-83
2022/02/07 12:26:08;;;;;;;3.05;1.55;;;;;;;8.04;70.40;97646.04;1737465;80;21044;-86
2022/02/07 12:28:43;;;;;;;3.37;1.80;;;;;;;8.04;70.39;97644.74;1669927;81;22193;-93
2022/02/07 12:31:21;;;;;;;4.22;2.10;;;;;;;8.08;70.94;97649.36;1647154;84;21026;-84
2022/02/07 12:34:07;;;;;;;5.67;2.58;;;;;;;8.12;71.03;97655.64;1669942;85;21008;-84
2022/02/07 12:36:36;;;;;;;4.83;2.42;;;;;;;8.19;70.85;97654.11;1672941;84;21099;-85
2022/02/07 12:39:13;;;;;;;3.75;2.20;;;;;;;8.12;70.76;97654.35;1689094;81;21183;-91
2022/02/07 12:41:41;;;;;;;6.58;2.00;;;;;;;8.10;70.66;97657.45;1691138;83;21051;-86
2022/02/07 12:44:10;;;;;;;4.67;2.30;;;;;;;8.08;69.99;97656.66;1692915;83;21172;-84
2022/02/07 12:46:45;;;;;;;2.98;1.70;;;;;;;8.08;69.64;97668.31;1681513;84;21055;-84
2022/02/07 12:49:13;;;;;;;4.10;1.62;;;;;;;8.00;69.73;97670.78;1697978;83;20994;-85
2022/02/07 12:51:46;;;;;;;4.78;2.00;;;;;;;7.84;69.68;97671.37;1692427;82;21036;-82
2022/02/07 12:54:22;;;;;;;4.35;1.90;;;;;;;7.75;70.44;97675.12;1690302;83;21007;-83
2022/02/07 12:56:50;;;;;;;2.50;1.40;;;;;;;7.65;70.84;97668.59;1685073;83;21049;-81
2022/02/07 12:59:17;;;;;;;5.03;2.17;;;;;;;7.53;70.83;97659.53;1695868;83;21011;-81
2022/02/07 13:01:46;;;;;;;4.12;1.50;;;;;;;7.47;71.17;97664.92;1737226;80;21154;-90
2022/02/07 13:04:17;;;;;;;3.27;1.77;;;;;;;7.30;72.09;97653.03;1728239;80;21071;-86
2022/02/07 13:06:48;;;;;;;6.15;2.00;;;;;;;7.30;72.45;97658.20;1692928;79;21404;-89
2022/02/07 13:09:31;;;;;;;4.55;2.17;;;;;;;7.23;72.93;97672.25;1723804;79;21746;-91
2022/02/07 13:12:05;;;;;;;3.90;1.85;;;;;;;7.25;72.83;97670.46;1717432;82;21035;-87
2022/02/07 13:14:38;;;;;;;4.75;2.00;;;;;;;7.14;73.18;97663.05;1730644;78;21277;-85
2022/02/07 13:17:06;;;;;;;5.17;2.42;;;;;;;7.05;73.71;97668.55;1665922;85;21063;-90
2022/02/07 13:19:43;;;;;;;3.62;1.75;;;;;;;6.95;73.84;97670.59;1662550;83;21048;-85
2022/02/07 13:22:15;;;;;;;4.75;1.82;;;;;;;6.88;74.02;97682.86;1677346;81;21166;-88
2022/02/07 13:24:41;;;;;;;3.50;2.05;;;;;;;6.77;74.63;97673.34;1758178;77;21098;-90
2022/02/07 13:27:12;;;;;;;4.08;2.15;;;;;;;6.62;75.75;97675.95;1762346;80;20950;-86
2022/02/07 13:29:46;;;;;;;4.03;1.80;;;;;;;6.57;75.78;97673.98;1758855;79;21057;-82
2022/02/07 13:32:17;;;;;;;3.12;1.82;;;;;;;6.48;76.28;97672.97;1690986;84;21391;-82
2022/02/07 13:34:47;;;;;;;3.92;2.08;;;;;;;6.43;76.24;97674.41;1756353;80;21148;-82
2022/02/07 13:37:26;;;;;;;4.90;2.47;;;;;;;6.48;75.62;97680.26;1750864;80;21009;-85
2022/02/07 13:40:05;;;;;;;3.98;1.95;;;;;;;6.42;75.37;97675.75;1742895;78;21047;-83
2022/02/07 13:42:41;;;;;;;5.83;2.22;;;;;;;6.37;75.09;97677.19;1757266;80;21025;-84
2022/02/07 13:45:18;;;;;;;3.77;1.62;;;;;;;6.30;76.02;97684.71;1760508;79;21050;-85
2022/02/07 13:47:51;;;;;;;3.52;1.50;;;;;;;6.26;76.47;97681.37;1735073;80;21031;-84
2022/02/07 13:50:28;;;;;;;3.58;1.60;;;;;;;6.24;76.70;97691.34;1773874;78;21079;-89
2022/02/07 13:53:03;;;;;;;2.85;1.47;;;;;;;6.15;76.96;97697.64;1743010;80;21039;-84
2022/02/07 13:55:41;;;;;;;3.95;2.20;;;;;;;6.17;77.53;97713.47;1734147;82;20994;-84
2022/02/07 13:58:21;;;;;;;7.83;2.05;;;;;;;6.15;77.99;97721.70;1718623;83;21079;-84
2022/02/07 14:00:54;;;;;;;3.60;2.00;;;;;;;6.05;78.91;97730.61;1729249;80;21562;-89
2022/02/07 14:03:40;;;;;;;4.25;2.10;;;;;;;5.98;79.45;97727.33;1624332;80;21057;-90
2022/02/07 14:06:14;;;;;;;;;;;;;;;5.97;79.30;97733.40;1662612;84;21176;-84
2022/02/07 14:08:53;;;;;;;3.75;1.80;;;;;;;5.89;79.80;97713.81;1646738;84;20082;-85
2022/02/07 14:11:31;;;;;;;4.00;2.30;;;;;;;5.96;79.05;97732.14;1700485;82;21144;-87
2022/02/07 14:14:06;;;;;;;4.60;2.30;;;;;;;5.93;79.80;97743.83;1719179;80;21128;-89
2022/02/07 14:16:33;;;;;;;3.20;1.72;;;;;;;5.96;79.29;97737.30;1732174;78;21118;-88
2022/02/07 14:19:02;;;;;;;3.83;2.00;;;;;;;5.91;79.74;97749.02;1699396;81;21086;-83
2022/02/07 14:21:34;;;;;;;3.42;2.08;;;;;;;5.81;81.05;97749.30;1730120;80;21039;-83
2022/02/07 14:24:02;;;;;;;5.50;2.60;;;;;;;5.78;80.99;97744.63;1750511;80;21051;-83
2022/02/07 14:26:34;;;;;;;4.55;2.33;;;;;;;5.73;81.43;97755.95;1770438;80;21001;-82
2022/02/07 14:28:56;;;;;;;4.85;2.40;;;;;;;5.71;81.22;97756.44;1769290;80;20975;-82
2022/02/07 14:31:24;;;;;;;3.55;2.00;;;;;;;5.71;80.49;97754.73;1768110;80;21468;-83
2022/02/07 14:33:51;;;;;;;3.80;2.02;;;;;;;5.61;82.52;97758.86;1755527;80;20999;-82
2022/02/07 14:36:17;;;;;;;3.98;2.12;;;;;;;5.62;82.05;97739.49;1741417;82;21019;-82
2022/02/07 14:38:44;;;;;;;4.10;2.10;;;;;;;5.65;82.38;97756.19;1698378;84;21025;-83
2022/02/07 14:41:11;;;;;;;4.17;2.10;;;;;;;5.63;82.34;97763.11;1726992;82;21016;-83
2022/02/07 14:43:51;;;;;;;4.30;2.22;;;;;;;5.61;82.74;97765.30;1744794;80;21024;-81
2022/02/07 14:46:23;;;;;;;6.33;2.45;;;;;;;5.61;83.08;97770.46;1734833;81;21500;-80
2022/02/07 14:48:47;;;;;;;3.80;2.00;;;;;;;5.60;82.94;97773.95;1758206;80;20971;-81
2022/02/07 14:51:14;;;;;;;4.15;2.10;;;;;;;5.56;83.06;97779.62;1750264;81;21011;-83
2022/02/07 14:53:42;;;;;;;4.58;2.27;;;;;;;5.56;82.31;97780.91;1743648;81;21046;-83
2022/02/07 14:56:09;;;;;;;3.75;1.98;;;;;;;5.49;83.13;97779.36;1770066;79;21022;-82
2022/02/07 14:58:36;;;;;;;7.95;2.30;;;;;;;5.47;82.87;97786.28;1767168;81;21045;-83
2022/02/07 15:01:03;;;;;;;4.47;1.90;;;;;;;5.44;82.66;97785.09;1768230;81;21033;-83
2022/02/07 15:03:30;;;;;;;4.25;1.85;;;;;;;5.42;83.63;97792.02;1758525;80;21539;-83
2022/02/07 15:05:59;;;;;;;4.10;1.80;;;;;;;5.44;83.02;97782.52;1765213;81;20929;-83
2022/02/07 15:08:28;;;;;;;3.05;1.85;;;;;;;5.38;83.11;97785.64;1752786;80;21056;-85
2022/02/07 15:10:56;;;;;;;3.80;2.02;;;;;;;5.33;84.35;97790.50;1760295;81;20984;-83
2022/02/07 15:13:24;;;;;;;5.35;2.22;;;;;;;5.32;84.18;97788.38;1768070;80;21046;-83
2022/02/07 15:15:52;;;;;;;3.58;2.00;;;;;;;5.28;84.89;97788.50;1746248;80;21107;-82
2022/02/07 15:18:23;;;;;;;5.87;2.37;;;;;;;5.28;84.19;97798.80;1731342;81;21097;-83
2022/02/07 15:20:48;;;;;;;4.25;2.40;;;;;;;5.25;83.94;97797.16;1721435;80;21022;-83
2022/02/07 15:23:16;;;;;;;4.58;2.30;;;;;;;5.17;84.46;97793.89;1730536;82;21066;-82
2022/02/07 15:25:42;;;;;;;4.12;2.17;;;;;;;5.12;83.76;97796.59;1730599;83;21558;-82
2022/02/07 15:28:11;;;;;;;3.10;1.70;;;;;;;5.07;84.15;97793.71;1719070;81;20989;-82
2022/02/07 15:30:41;;;;;;;3.90;1.92;;;;;;;5.01;84.74;97814.02;1715164;82;20980;-82
2022/02/07 15:33:17;;;;;;;3.42;1.90;;;;;;;4.98;84.10;97798.20;1731686;82;20982;-83
2022/02/07 15:35:47;;;;;;;4.17;1.85;;;;;;;4.96;85.47;97806.41;1736091;82;21015;-83
2022/02/07 15:38:14;;;;;;;4.03;1.77;;;;;;;4.94;84.67;97806.89;1716775;83;21036;-83
2022/02/07 15:40:41;;;;;;;5.25;2.40;;;;;;;4.91;85.17;97814.67;1711838;82;21013;-82
2022/02/07 15:43:08;;;;;;;4.08;1.90;;;;;;;4.87;86.29;97814.34;1721249;81;20998;-83
2022/02/07 15:45:36;;;;;;;5.17;2.40;;;;;;;4.86;86.16;97824.24;1730540;82;21041;-84
2022/02/07 15:48:03;;;;;;;4.22;2.22;;;;;;;4.89;85.44;97820.75;1723708;82;20995;-82
2022/02/07 15:50:31;;;;;;;4.85;2.40;;;;;;;4.85;85.19;97819.13;1718108;83;21007;-83
2022/02/07 15:52:59;;;;;;;4.22;2.47;;;;;;;4.82;85.40;97816.63;1722984;82;21011;-83
2022/02/07 15:55:27;;;;;;;4.72;2.40;;;;;;;4.80;85.57;97829.53;1720411;83;20979;-82
2022/02/07 15:57:54;;;;;;;4.55;2.37;;;;;;;4.81;84.08;97833.78;1715370;82;21078;-83